Weather at Dobroslavtsi Air Base [CLOSED]

Public forecast

Using degrees Celsius for public forecast. Weather courtesy of forecast.io.

Closest aviation weather report (METAR) to Dobroslavtsi Air Base

Closest report is Sofia Airport, 8.5 nm (15.8 km) SE. Retrieved 2022/06/29 21:30 UTC (0 seconds ago):

LBSF 292130Z AUTO 14005KT 9999 NCD 19/15 Q1016 NOSIG

Closest aviation forecast (TAF) to Dobroslavtsi Air Base

Closest forecast is Sofia Airport, 8.5 nm (15.8 km) SE. Retrieved 2022/06/29 18:18 UTC (3 hours ago):

TAF LBSF 291700Z 2918/3018 08010KT CAVOK BECMG 2920/2922 VRB04KT BECMG 3010/3012 08010KT